NJE412K ELLX-LFPB
Flight info
| Callsign | NJE412K |
|---|---|
| Flight time | 0h 33m |
| Altitude | 18000 |
| Route | RAPOR Q763 RENSA |
| Aircraft | CL60/M-SBDE1E2E3FGHIJ1J4J5J7M3RWXYZ/LB1V1D1 |
Departure
| Time | 2026-04-17 11:43 |
|---|---|
| Airport | Luxembourg-Findel International Airport (ELLX) |
Arrival
| Time | 2026-04-17 12:16 |
|---|---|
| Airport | Paris-Le Bourget International Airport (LFPB) |
| Time | Latitude | Longitude | Altitude | Speed | Heading |
|---|---|---|---|---|---|
| 2026-04-17 10:58 | 49.63003 | 6.21182 | 1235 ft | 0 kts | 64° |
| 2026-04-17 11:37 | 49.63003 | 6.21183 | 1235 ft | 1 kts | 64° |
| 2026-04-17 11:37 | 49.63010 | 6.21221 | 1234 ft | 5 kts | 117° |
| 2026-04-17 11:38 | 49.62975 | 6.21269 | 1234 ft | 8 kts | 120° |
| 2026-04-17 11:38 | 49.62993 | 6.21368 | 1233 ft | 8 kts | 64° |
| 2026-04-17 11:38 | 49.63026 | 6.21474 | 1232 ft | 13 kts | 65° |
| 2026-04-17 11:38 | 49.63068 | 6.21613 | 1229 ft | 13 kts | 65° |
| 2026-04-17 11:39 | 49.63115 | 6.21766 | 1227 ft | 18 kts | 64° |
| 2026-04-17 11:39 | 49.63172 | 6.21948 | 1225 ft | 17 kts | 64° |
| 2026-04-17 11:39 | 49.63229 | 6.22134 | 1223 ft | 18 kts | 64° |
| 2026-04-17 11:39 | 49.63282 | 6.22304 | 1221 ft | 15 kts | 64° |
| 2026-04-17 11:40 | 49.63331 | 6.22459 | 1221 ft | 16 kts | 63° |
| 2026-04-17 11:40 | 49.63380 | 6.22598 | 1220 ft | 14 kts | 60° |
| 2026-04-17 11:40 | 49.63435 | 6.22744 | 1220 ft | 16 kts | 60° |
| 2026-04-17 11:40 | 49.63488 | 6.22890 | 1220 ft | 16 kts | 60° |
| 2026-04-17 11:41 | 49.63551 | 6.23059 | 1219 ft | 17 kts | 60° |
| 2026-04-17 11:41 | 49.63612 | 6.23222 | 1219 ft | 17 kts | 60° |
| 2026-04-17 11:41 | 49.63667 | 6.23379 | 1218 ft | 13 kts | 78° |
| 2026-04-17 11:41 | 49.63599 | 6.23492 | 1218 ft | 17 kts | 151° |
| 2026-04-17 11:42 | 49.63510 | 6.23476 | 1218 ft | 14 kts | 232° |
| 2026-04-17 11:42 | 49.63500 | 6.23453 | 1218 ft | 0 kts | 241° |
| 2026-04-17 11:42 | 49.63419 | 6.23239 | 1219 ft | 77 kts | 239° |
| 2026-04-17 11:43 | 49.62977 | 6.22046 | 1294 ft | 167 kts | 242° |
| 2026-04-17 11:43 | 49.62398 | 6.20351 | 2001 ft | 201 kts | 243° |
| 2026-04-17 11:43 | 49.61660 | 6.18290 | 2900 ft | 238 kts | 239° |
| 2026-04-17 11:43 | 49.60788 | 6.16031 | 4077 ft | 259 kts | 238° |
| 2026-04-17 11:44 | 49.59883 | 6.13678 | 5602 ft | 265 kts | 239° |
| 2026-04-17 11:44 | 49.58958 | 6.11272 | 7157 ft | 270 kts | 238° |
| 2026-04-17 11:44 | 49.58040 | 6.08840 | 8697 ft | 273 kts | 239° |
| 2026-04-17 11:44 | 49.57106 | 6.06349 | 10155 ft | 278 kts | 239° |
| 2026-04-17 11:45 | 49.56249 | 6.03690 | 11542 ft | 284 kts | 254° |
| 2026-04-17 11:45 | 49.56243 | 6.00742 | 12851 ft | 291 kts | 285° |
| 2026-04-17 11:45 | 49.57119 | 5.97907 | 14087 ft | 300 kts | 298° |
| 2026-04-17 11:45 | 49.58185 | 5.95183 | 15363 ft | 303 kts | 298° |
| 2026-04-17 11:46 | 49.59261 | 5.92383 | 16568 ft | 308 kts | 298° |
| 2026-04-17 11:46 | 49.60292 | 5.89505 | 17561 ft | 317 kts | 291° |
| 2026-04-17 11:46 | 49.60723 | 5.86081 | 18064 ft | 338 kts | 271° |
| 2026-04-17 11:46 | 49.60735 | 5.82335 | 18211 ft | 368 kts | 269° |
| 2026-04-17 11:47 | 49.60741 | 5.78247 | 18211 ft | 383 kts | 269° |
| 2026-04-17 11:47 | 49.60753 | 5.74136 | 18206 ft | 380 kts | 269° |
| 2026-04-17 11:47 | 49.60766 | 5.70115 | 18238 ft | 379 kts | 270° |
| 2026-04-17 11:47 | 49.60778 | 5.66019 | 18207 ft | 378 kts | 270° |
| 2026-04-17 11:48 | 49.60792 | 5.61987 | 18211 ft | 377 kts | 270° |
| 2026-04-17 11:48 | 49.60779 | 5.57968 | 18220 ft | 377 kts | 268° |
| 2026-04-17 11:48 | 49.60622 | 5.53942 | 18208 ft | 377 kts | 265° |
| 2026-04-17 11:48 | 49.60432 | 5.49894 | 18215 ft | 377 kts | 266° |
| 2026-04-17 11:49 | 49.60246 | 5.45896 | 18213 ft | 376 kts | 266° |
| 2026-04-17 11:49 | 49.60058 | 5.41867 | 18214 ft | 376 kts | 265° |
| 2026-04-17 11:49 | 49.59867 | 5.37858 | 18214 ft | 375 kts | 266° |
| 2026-04-17 11:49 | 49.59676 | 5.33880 | 18212 ft | 375 kts | 265° |
| 2026-04-17 11:50 | 49.59484 | 5.29880 | 18209 ft | 375 kts | 265° |
| 2026-04-17 11:50 | 49.59290 | 5.25853 | 18211 ft | 375 kts | 265° |
| 2026-04-17 11:50 | 49.59082 | 5.21860 | 18216 ft | 375 kts | 263° |
| 2026-04-17 11:50 | 49.58550 | 5.17914 | 18208 ft | 375 kts | 254° |
| 2026-04-17 11:51 | 49.57854 | 5.14077 | 18213 ft | 375 kts | 254° |
| 2026-04-17 11:51 | 49.57161 | 5.10230 | 18214 ft | 375 kts | 254° |
| 2026-04-17 11:51 | 49.56463 | 5.06356 | 18215 ft | 375 kts | 254° |
| 2026-04-17 11:51 | 49.55767 | 5.02496 | 18220 ft | 375 kts | 254° |
| 2026-04-17 11:52 | 49.55069 | 4.98620 | 18218 ft | 375 kts | 254° |
| 2026-04-17 11:52 | 49.54367 | 4.94732 | 18208 ft | 375 kts | 254° |
| 2026-04-17 11:52 | 49.53667 | 4.90853 | 18220 ft | 375 kts | 255° |
| 2026-04-17 11:52 | 49.52976 | 4.87023 | 18206 ft | 375 kts | 255° |
| 2026-04-17 11:53 | 49.52272 | 4.83133 | 18202 ft | 374 kts | 254° |
| 2026-04-17 11:53 | 49.51579 | 4.79302 | 18197 ft | 374 kts | 255° |
| 2026-04-17 11:53 | 49.50876 | 4.75422 | 18194 ft | 374 kts | 254° |
| 2026-04-17 11:53 | 49.50178 | 4.71577 | 18200 ft | 374 kts | 254° |
| 2026-04-17 11:54 | 49.49477 | 4.67721 | 18198 ft | 374 kts | 254° |
| 2026-04-17 11:54 | 49.48778 | 4.63886 | 18189 ft | 374 kts | 254° |
| 2026-04-17 11:54 | 49.48075 | 4.60033 | 18202 ft | 374 kts | 254° |
| 2026-04-17 11:54 | 49.47374 | 4.56193 | 18199 ft | 374 kts | 254° |
| 2026-04-17 11:55 | 49.46669 | 4.52348 | 18192 ft | 374 kts | 254° |
| 2026-04-17 11:55 | 49.45964 | 4.48503 | 18195 ft | 374 kts | 254° |
| 2026-04-17 11:55 | 49.45255 | 4.44641 | 18200 ft | 374 kts | 254° |
| 2026-04-17 11:55 | 49.44546 | 4.40795 | 18198 ft | 374 kts | 254° |
| 2026-04-17 11:56 | 49.43845 | 4.36990 | 18140 ft | 368 kts | 254° |
| 2026-04-17 11:56 | 49.43158 | 4.33274 | 17763 ft | 355 kts | 253° |
| 2026-04-17 11:56 | 49.42500 | 4.29717 | 17341 ft | 344 kts | 253° |
| 2026-04-17 11:56 | 49.41850 | 4.26204 | 16936 ft | 334 kts | 253° |
| 2026-04-17 11:57 | 49.41224 | 4.22829 | 16481 ft | 328 kts | 253° |
| 2026-04-17 11:57 | 49.40604 | 4.19491 | 16079 ft | 320 kts | 253° |
| 2026-04-17 11:57 | 49.40001 | 4.16254 | 15652 ft | 313 kts | 253° |
| 2026-04-17 11:57 | 49.39407 | 4.13064 | 15236 ft | 308 kts | 253° |
| 2026-04-17 11:58 | 49.38826 | 4.09949 | 14855 ft | 302 kts | 253° |
| 2026-04-17 11:58 | 49.38257 | 4.06909 | 14437 ft | 298 kts | 253° |
| 2026-04-17 11:58 | 49.37684 | 4.03857 | 14047 ft | 293 kts | 253° |
| 2026-04-17 11:58 | 49.37125 | 4.00902 | 13737 ft | 286 kts | 252° |
| 2026-04-17 11:59 | 49.36573 | 3.98006 | 13639 ft | 284 kts | 251° |
| 2026-04-17 11:59 | 49.35824 | 3.95153 | 13423 ft | 292 kts | 243° |
| 2026-04-17 11:59 | 49.34908 | 3.92431 | 13194 ft | 288 kts | 242° |
| 2026-04-17 11:59 | 49.33987 | 3.89701 | 12971 ft | 289 kts | 242° |
| 2026-04-17 12:00 | 49.33067 | 3.86966 | 12726 ft | 287 kts | 242° |
| 2026-04-17 12:00 | 49.32158 | 3.84264 | 12515 ft | 286 kts | 243° |
| 2026-04-17 12:00 | 49.31245 | 3.81545 | 12290 ft | 285 kts | 242° |
| 2026-04-17 12:00 | 49.30337 | 3.78842 | 12059 ft | 285 kts | 242° |
| 2026-04-17 12:01 | 49.29430 | 3.76145 | 11839 ft | 284 kts | 242° |
| 2026-04-17 12:01 | 49.28532 | 3.73476 | 11624 ft | 282 kts | 243° |
| 2026-04-17 12:01 | 49.27634 | 3.70803 | 11405 ft | 281 kts | 242° |
| 2026-04-17 12:01 | 49.26530 | 3.68372 | 11172 ft | 279 kts | 224° |
| 2026-04-17 12:02 | 49.24920 | 3.66727 | 10951 ft | 278 kts | 209° |
| 2026-04-17 12:02 | 49.23192 | 3.65362 | 10738 ft | 279 kts | 208° |
| 2026-04-17 12:02 | 49.21481 | 3.63997 | 10545 ft | 280 kts | 209° |
| 2026-04-17 12:02 | 49.19758 | 3.62620 | 10333 ft | 279 kts | 209° |
| 2026-04-17 12:03 | 49.18042 | 3.61249 | 10127 ft | 278 kts | 209° |
| 2026-04-17 12:03 | 49.16340 | 3.59889 | 9943 ft | 277 kts | 208° |
| 2026-04-17 12:03 | 49.14643 | 3.58533 | 9725 ft | 277 kts | 208° |
| 2026-04-17 12:03 | 49.13077 | 3.56866 | 9520 ft | 275 kts | 224° |
| 2026-04-17 12:04 | 49.11727 | 3.54819 | 9317 ft | 274 kts | 225° |
| 2026-04-17 12:04 | 49.10370 | 3.52760 | 9094 ft | 273 kts | 225° |
| 2026-04-17 12:04 | 49.09027 | 3.50725 | 8907 ft | 273 kts | 225° |
| 2026-04-17 12:04 | 49.07671 | 3.48673 | 8690 ft | 273 kts | 225° |
| 2026-04-17 12:05 | 49.06322 | 3.46633 | 8491 ft | 272 kts | 226° |
| 2026-04-17 12:05 | 49.05038 | 3.44542 | 8288 ft | 269 kts | 235° |
| 2026-04-17 12:05 | 49.04292 | 3.41960 | 8079 ft | 270 kts | 258° |
| 2026-04-17 12:05 | 49.04012 | 3.39128 | 7861 ft | 270 kts | 262° |
| 2026-04-17 12:06 | 49.03753 | 3.36277 | 7643 ft | 268 kts | 262° |
| 2026-04-17 12:06 | 49.03495 | 3.33483 | 7463 ft | 268 kts | 261° |
| 2026-04-17 12:06 | 49.03237 | 3.30670 | 7249 ft | 268 kts | 262° |
| 2026-04-17 12:06 | 49.02979 | 3.27858 | 7045 ft | 267 kts | 262° |
| 2026-04-17 12:07 | 49.02721 | 3.25051 | 6835 ft | 267 kts | 262° |
| 2026-04-17 12:07 | 49.02466 | 3.22268 | 6634 ft | 266 kts | 262° |
| 2026-04-17 12:07 | 49.02210 | 3.19487 | 6428 ft | 266 kts | 262° |
| 2026-04-17 12:07 | 49.01954 | 3.16697 | 6238 ft | 266 kts | 262° |
| 2026-04-17 12:08 | 49.01696 | 3.13882 | 6012 ft | 266 kts | 262° |
| 2026-04-17 12:08 | 49.01440 | 3.11111 | 5659 ft | 266 kts | 263° |
| 2026-04-17 12:08 | 49.01186 | 3.08346 | 5448 ft | 263 kts | 262° |
| 2026-04-17 12:08 | 49.00932 | 3.05590 | 5243 ft | 264 kts | 262° |
| 2026-04-17 12:09 | 49.00676 | 3.02820 | 5010 ft | 264 kts | 262° |
| 2026-04-17 12:09 | 49.00419 | 3.00042 | 4822 ft | 262 kts | 262° |
| 2026-04-17 12:09 | 49.00166 | 2.97315 | 4635 ft | 258 kts | 262° |
| 2026-04-17 12:09 | 48.99919 | 2.94659 | 4443 ft | 252 kts | 262° |
| 2026-04-17 12:10 | 48.99677 | 2.92058 | 4298 ft | 246 kts | 262° |
| 2026-04-17 12:10 | 48.99439 | 2.89485 | 4098 ft | 242 kts | 262° |
| 2026-04-17 12:10 | 48.99206 | 2.86997 | 3910 ft | 234 kts | 262° |
| 2026-04-17 12:10 | 48.98980 | 2.84572 | 3712 ft | 227 kts | 262° |
| 2026-04-17 12:11 | 48.98760 | 2.82210 | 3559 ft | 223 kts | 262° |
| 2026-04-17 12:11 | 48.98542 | 2.79893 | 3415 ft | 219 kts | 262° |
| 2026-04-17 12:11 | 48.98329 | 2.77623 | 3252 ft | 214 kts | 262° |
| 2026-04-17 12:12 | 48.97989 | 2.73210 | 3003 ft | 209 kts | 266° |
| 2026-04-17 12:12 | 48.97890 | 2.71048 | 2997 ft | 198 kts | 267° |
| 2026-04-17 12:12 | 48.97796 | 2.69003 | 3044 ft | 193 kts | 266° |
| 2026-04-17 12:12 | 48.97693 | 2.66976 | 3003 ft | 190 kts | 266° |
| 2026-04-17 12:13 | 48.97587 | 2.64957 | 2764 ft | 193 kts | 266° |
| 2026-04-17 12:13 | 48.97480 | 2.62948 | 2518 ft | 187 kts | 266° |
| 2026-04-17 12:13 | 48.97374 | 2.60968 | 2262 ft | 188 kts | 266° |
| 2026-04-17 12:13 | 48.97268 | 2.58971 | 2021 ft | 187 kts | 266° |
| 2026-04-17 12:14 | 48.97166 | 2.57048 | 1747 ft | 179 kts | 266° |
| 2026-04-17 12:14 | 48.97068 | 2.55235 | 1562 ft | 169 kts | 266° |
| 2026-04-17 12:14 | 48.96975 | 2.53475 | 1313 ft | 159 kts | 265° |
| 2026-04-17 12:14 | 48.96892 | 2.51923 | 1187 ft | 141 kts | 266° |
| 2026-04-17 12:15 | 48.96813 | 2.50462 | 959 ft | 136 kts | 266° |
| 2026-04-17 12:15 | 48.96737 | 2.49061 | 787 ft | 132 kts | 266° |
| 2026-04-17 12:15 | 48.96662 | 2.47673 | 614 ft | 132 kts | 265° |
| 2026-04-17 12:15 | 48.96594 | 2.46290 | 440 ft | 130 kts | 265° |
| 2026-04-17 12:16 | 48.96522 | 2.44905 | 271 ft | 131 kts | 266° |
| 2026-04-17 12:16 | 48.96450 | 2.43572 | 165 ft | 116 kts | 265° |
| 2026-04-17 12:16 | 48.96403 | 2.42681 | 162 ft | 46 kts | 266° |
| 2026-04-17 12:16 | 48.96352 | 2.42491 | 161 ft | 16 kts | 194° |
| 2026-04-17 12:17 | 48.96260 | 2.42551 | 160 ft | 16 kts | 132° |
| 2026-04-17 12:17 | 48.96183 | 2.42697 | 159 ft | 17 kts | 129° |
| 2026-04-17 12:17 | 48.96096 | 2.42863 | 155 ft | 19 kts | 129° |
| 2026-04-17 12:17 | 48.96013 | 2.43022 | 152 ft | 18 kts | 129° |
| 2026-04-17 12:18 | 48.95950 | 2.43159 | 150 ft | 14 kts | 117° |
| 2026-04-17 12:18 | 48.95911 | 2.43287 | 149 ft | 14 kts | 114° |
| 2026-04-17 12:18 | 48.95862 | 2.43447 | 149 ft | 18 kts | 115° |
| 2026-04-17 12:18 | 48.95807 | 2.43626 | 149 ft | 17 kts | 115° |
| 2026-04-17 12:19 | 48.95754 | 2.43803 | 149 ft | 19 kts | 115° |
| 2026-04-17 12:19 | 48.95725 | 2.43896 | 149 ft | 8 kts | 115° |
| 2026-04-17 12:19 | 48.95697 | 2.43990 | 150 ft | 7 kts | 111° |
| 2026-04-17 12:19 | 48.95718 | 2.44076 | 151 ft | 10 kts | 32° |
| 2026-04-17 12:20 | 48.95792 | 2.44130 | 153 ft | 12 kts | 24° |
| 2026-04-17 12:20 | 48.95879 | 2.44192 | 156 ft | 14 kts | 25° |
| 2026-04-17 12:20 | 48.95942 | 2.44235 | 158 ft | 10 kts | 25° |
| 2026-04-17 12:20 | 48.95998 | 2.44274 | 160 ft | 9 kts | 25° |
| 2026-04-17 12:21 | 48.96036 | 2.44313 | 161 ft | 4 kts | 106° |
| 2026-04-17 12:21 | 48.96025 | 2.44350 | 161 ft | 1 kts | 115° |
| 2026-04-17 12:21 | 48.96031 | 2.44375 | 162 ft | 4 kts | 26° |
| 2026-04-17 12:21 | 48.96048 | 2.44399 | 164 ft | 3 kts | 77° |
| 2026-04-17 12:22 | 48.96036 | 2.44452 | 164 ft | 6 kts | 114° |
| 2026-04-17 12:22 | 48.96020 | 2.44455 | 163 ft | 1 kts | 212° |
| 2026-04-17 12:22 | 48.96016 | 2.44451 | 163 ft | 0 kts | 221° |